Airfield :
LOGIN :

Register | Disclaimer

   EN    FR    IT 

 










Legend :    VFR   Marginal VFR   IFR   Intensive IFR   Very Intensive IFR
Visi :
Ceiling :
>= 8 km
>= 3000ft
5 to 8 km
1000 to 3000 ft
1500m to 5 km
500 to 1000 ft
800 to 1500m
200 to 500 ft
< 800m
< 200 ft
Symbols :   Thunderstorms  Fog  Heavy snow  Heavy precipitations  Wind > 20 kt
SIGMETs :     Misc.  Thunderstorms  Icing  Turbulence  Mountain Waves  Volcanic Ashes






- Airport Elevation : 31 ft
- IATA code : INV


EGPE - Inverness

CURRENT METAR :
  • 061150Z AUTO 26002KT 2100 RA SCT003/// OVC010/// 11/09 Q0999

EXPIRED METARs :
  • 061120Z AUTO 28002KT 2700 -DZ SCT005/// BKN015/// BKN019/// 11/09 Q0998 REDZ
  • 061050Z AUTO VRB01KT 9999 BKN016/// 12/09 Q0998
  • 061020Z AUTO 03002KT 9999 BKN014/// OVC018/// 11/08 Q0998
  • 060950Z AUTO 04003KT 9999 BKN015/// OVC032/// 11/08 Q0997
  • 060920Z 04004KT 360V070 9999 FEW010 SCT027 12/09 Q0997

TAF AMD TAF EGPE
Valid from the 06 at 11:00 until the 06 at 18:00 UTC


061132Z 0611/0618 33008KT 9999 FEW005 SCT030
TEMPO 0611/0618 6000 RA BKN012
PROB30
TEMPO 0611/0618 2000 RADZ BKN005
ATIS : +44 1667 464 255



MET'MAP, your aeronautical weather chart ! - Copyright ORBIFLY December 2007 - Disclaimer

ORBIFLY MET'MAP TEAM :

Programming & Development : Alexandra Zaïnal
Concept & original design : Baudouin d'Aumeries
Assistance for programming : Marc-Olivier Méhu
Technical & hardware support : Manuel Goepfert

Contact : metmap@orbifly.com




SOURCES & CREDITS :

   NOAA